Архив погоды в Красных Баках

Метеограмма Красные Баки
Среда, 19 Июня
Время местн. Темп Ветер Видим Явления Облачность нижн/средн/верх Атм. давл. Влжн Точка росы ВНГО R Сост. почвы Tg s
Напр Скр Прв ур.ст ур.м изм
15:00 +25.8° С-З 3 6 20 км - переменная облачность 749 758 -0.2 33% +8.1° 1.5 км - - - -
12:00 +25.7° С-З 4 8 20 км - облачно с прояснениями 749 759 -0.1 37% +10° 1.5 км - - - -
09:00 +21.8° С 3 4 20 км - переменная облачность 749 759 +0.5 54% +12.1° более 2.5 км - - - -
06:00 +16.5° С-З 3 5 20 км - ясно 749 759 +0.8 78% +12.7° более 2.5 км - Сухая (без трещин) - -
03:00 +14.5° З,С-З 3 5 20 км - переменная облачность 748 758 +0.5 89% +12.7° более 2.5 км - - - -
00:00 +15.9° З,С-З 3 5 10 км - переменная облачность 748 757 -0.1 83% +13° - - - - -
Вторник, 18 Июня
Время местн. Темп Ветер Видим Явления Облачность нижн/средн/верх Атм. давл. Влжн Точка росы ВНГО R Сост. почвы Tg s
Напр Скр Прв ур.ст ур.м изм
21:00 +18.5° С,С-З 2 3 20 км небо без изменений {ливневые осадки} преимущественно облачно 748 757 +0.5 63% +11.4° - - - - -
18:00 +21.4° З 1 3 20 км небо без изменений {ливневые осадки} преимущественно облачно 747 757 -0.1 61% +13.6° 1.5 км - - - -
15:00 +24.4° З,С-З 2 3 20 км - преимущественно облачно 747 757 -0.8 41% +10.2° 1.5 км - - - -
12:00 +23.1° С-З 2 3 20 км - преимущественно облачно 748 757 -0.4 46% +10.9° 1.5 км - - - -
09:00 +22.6° З 1 1 20 км - облачно с прояснениями 748 758 -0.2 50% +11.8° более 2.5 км - - - -
06:00 +17.7° З 2 2 20 км - облачно с прояснениями 749 758 +0.2 63% +10.6° - - Сухая (без трещин) - -
03:00 +14.2° З,С-З 2 2 20 км - облачно с прояснениями 748 758 0 79% +10.6° - - - - -
00:00 +16.1° З 2 3 20 км - переменная облачность 748 758 +0.3 68% +10.3° - - - - -
Понедельник, 17 Июня
Время местн. Темп Ветер Видим Явления Облачность нижн/средн/верх Атм. давл. Влжн Точка росы ВНГО R Сост. почвы Tg s
Напр Скр Прв ур.ст ур.м изм
21:00 +19.4° З 2 2 20 км - переменная облачность 748 758 +0.2 56% +10.5° более 2.5 км - - - -
18:00 +23.8° З 4 9 20 км - переменная облачность 748 757 -0.2 38% +8.5° более 2.5 км 0 - - -
15:00 +24.9° З,С-З 4 6 20 км - переменная облачность 748 757 -0.5 31% +6.4° - - - - -
12:00 +23.7° З 5 6 20 км - переменная облачность 749 758 -0.4 35% +7.3° - - - - -
09:00 +21.4° З,С-З 4 5 20 км - переменная облачность 749 759 +0.1 49% +10.4° более 2.5 км - - - -
06:00 +15.1° З,С-З 3 6 20 км - переменная облачность 749 759 -0.2 68% +9.3° - - Влажная (без луж) - -
03:00 +12.9° З 2 3 10 км ливневый дождь облачно 749 759 -0.1 78% +9.2° 1 км - - - -
00:00 +9.9° З 1 2 10 км - переменная облачность 749 759 +0.2 84% +7.4° 1.5 км - - - -
Воскресенье, 16 Июня
Время местн. Темп Ветер Видим Явления Облачность нижн/средн/верх Атм. давл. Влжн Точка росы ВНГО R Сост. почвы Tg s
Напр Скр Прв ур.ст ур.м изм
21:00 +14.7° З 2 2 20 км - переменная облачность 749 759 +0.3 69% +9° 1.5 км - - - -
18:00 +20.5° С 2 6 20 км - переменная облачность 749 758 -0.2 42% +7° 1.5 км - - - -
15:00 +18.9° С,С-З 2 6 20 км небо без изменений {ливневые осадки} облачно с прояснениями 749 759 0 54% +9.4° 1.5 км - - - -
12:00 +18.2° З,С-З 4 6 20 км - облачно 749 759 -0.5 54% +8.8° 1.5 км - - - -